Time;durP1;ratioP1;P1;durP2;ratioP2;P2;SDS_P1;SDS_P2;PMS_P1;PMS_P2;Temp;Humidity;BMP_temperature;BMP_pressure;BME280_temperature;BME280_humidity;BME280_pressure;Samples;Min_cycle;Max_cycle;Signal;HPM_P1;HPM_P2
2021/12/20 00:01:57;;;;;;;17.20;4.68;;;;;;;4.66;83.50;99657.50;6097804;23;20488;-76
2021/12/20 00:04:23;;;;;;;21.23;5.93;;;;;;;4.70;83.17;99658.75;6098547;23;20033;-76
2021/12/20 00:06:48;;;;;;;12.02;4.43;;;;;;;4.67;83.42;99656.50;6127210;23;20005;-76
2021/12/20 00:09:14;;;;;;;16.73;4.82;;;;;;;4.68;83.39;99658.13;6076157;23;20445;-76
2021/12/20 00:11:39;;;;;;;20.27;5.22;;;;;;;4.60;82.79;99653.81;6099991;23;20006;-76
2021/12/20 00:14:05;;;;;;;24.58;5.20;;;;;;;4.67;82.82;99667.91;6099481;23;20010;-76
2021/12/20 00:16:30;;;;;;;20.75;5.30;;;;;;;4.68;83.23;99666.06;6051772;23;20010;-76
2021/12/20 00:18:55;;;;;;;22.33;5.82;;;;;;;4.67;83.22;99661.81;6099454;23;20077;-75
2021/12/20 00:21:21;;;;;;;17.83;4.63;;;;;;;4.53;83.16;99642.34;6075787;23;20014;-75
2021/12/20 00:23:46;;;;;;;23.27;5.13;;;;;;;4.64;83.27;99662.16;6075481;23;20468;-76
2021/12/20 00:26:12;;;;;;;13.30;4.22;;;;;;;4.65;83.00;99658.53;6075511;23;20101;-75
2021/12/20 00:28:38;;;;;;;17.80;3.95;;;;;;;4.63;83.23;99650.78;6099601;23;20006;-76
2021/12/20 00:31:03;;;;;;;19.80;5.30;;;;;;;4.62;82.95;99653.63;6099317;23;20013;-77
2021/12/20 00:33:33;;;;;;;23.98;5.00;;;;;;;4.52;83.07;99638.88;6075674;23;20006;-77
2021/12/20 00:36:08;;;;;;;20.83;4.68;;;;;;;4.57;83.11;99654.19;6076480;23;20065;-76
2021/12/20 00:41:39;;;;;;;20.02;5.53;;;;;;;4.48;82.55;99656.13;6007834;23;20128;-76
2021/12/20 00:44:04;;;;;;;22.30;5.93;;;;;;;4.50;82.35;99664.69;5984182;23;20029;-76
2021/12/20 00:46:30;;;;;;;23.52;4.97;;;;;;;4.49;82.62;99664.88;6060771;23;20097;-76
2021/12/20 00:48:55;;;;;;;22.13;4.63;;;;;;;4.47;82.81;99672.19;6075384;23;20084;-76
2021/12/20 00:51:21;;;;;;;14.73;4.55;;;;;;;4.46;82.42;99670.53;6099247;23;20006;-76
2021/12/20 00:53:46;;;;;;;17.30;4.80;;;;;;;4.41;82.83;99663.19;6075094;23;20032;-76
2021/12/20 00:56:12;;;;;;;18.30;5.22;;;;;;;4.40;82.66;99668.66;6051626;23;20459;-76
2021/12/20 00:58:37;;;;;;;22.30;6.03;;;;;;;4.37;82.68;99669.03;6075403;23;20009;-76
2021/12/20 01:01:05;;;;;;;17.63;4.22;;;;;;;4.37;82.17;99669.84;6051763;23;20021;-76
2021/12/20 01:03:30;;;;;;;25.52;6.38;;;;;;;4.34;81.92;99674.72;6098294;23;20006;-76
2021/12/20 01:05:57;;;;;;;28.75;5.88;;;;;;;4.31;82.07;99681.19;6073594;23;20037;-76
2021/12/20 01:08:23;;;;;;;19.70;5.70;;;;;;;4.29;82.22;99677.09;6074613;23;20001;-76
2021/12/20 01:10:52;;;;;;;13.52;5.07;;;;;;;4.28;81.92;99678.91;6123155;23;20037;-76
2021/12/20 01:13:22;;;;;;;18.75;5.57;;;;;;;4.27;82.07;99676.47;6098988;23;20008;-76
2021/12/20 01:15:51;;;;;;;20.00;5.32;;;;;;;4.25;81.80;99674.00;6051448;23;20013;-77
2021/12/20 01:18:18;;;;;;;19.98;5.53;;;;;;;4.22;82.22;99677.03;6100851;23;20337;-78
2021/12/20 01:20:44;;;;;;;26.30;5.03;;;;;;;4.22;82.10;99682.31;6100283;23;20017;-78
2021/12/20 01:23:11;;;;;;;14.07;4.43;;;;;;;4.20;81.45;99679.03;6074785;23;20016;-76
2021/12/20 01:25:37;;;;;;;20.38;4.93;;;;;;;4.13;81.61;99686.06;6098183;23;20009;-76
2021/12/20 01:28:04;;;;;;;20.27;5.85;;;;;;;4.12;81.75;99684.44;6097178;23;20013;-76
2021/12/20 01:30:30;;;;;;;16.02;5.57;;;;;;;4.07;81.47;99678.88;6074701;23;20010;-76
2021/12/20 01:32:55;;;;;;;16.83;5.57;;;;;;;4.06;81.76;99685.19;6073891;23;20060;-76
2021/12/20 01:35:23;;;;;;;19.13;5.70;;;;;;;4.07;81.17;99684.16;6097962;23;20097;-76
2021/12/20 01:37:50;;;;;;;19.00;4.40;;;;;;;4.05;81.41;99680.06;6050149;23;20006;-76
2021/12/20 01:40:16;;;;;;;22.15;5.38;;;;;;;3.98;81.63;99687.09;6097962;23;20468;-76
2021/12/20 01:42:43;;;;;;;25.95;5.47;;;;;;;3.96;81.24;99686.47;6097859;23;20148;-76
2021/12/20 01:45:15;;;;;;;22.42;5.63;;;;;;;3.98;81.23;99695.03;6074168;23;20409;-76
2021/12/20 01:47:45;;;;;;;17.95;5.65;;;;;;;3.93;81.52;99690.31;6050786;23;20464;-76
2021/12/20 01:50:40;;;;;;;21.83;5.05;;;;;;;3.96;81.07;99689.94;6097954;23;20005;-76
2021/12/20 01:53:06;;;;;;;26.10;6.07;;;;;;;3.93;81.47;99694.78;6080043;23;20493;-77
2021/12/20 01:55:31;;;;;;;20.05;6.15;;;;;;;3.89;81.38;99699.59;6098641;23;20036;-76
2021/12/20 01:57:56;;;;;;;29.98;6.10;;;;;;;3.86;81.11;99702.63;6098121;23;20002;-76
2021/12/20 02:00:25;;;;;;;23.48;5.75;;;;;;;3.86;81.24;99705.25;6050514;23;20464;-76
2021/12/20 02:02:58;;;;;;;15.77;4.53;;;;;;;3.88;81.33;99702.44;6098518;23;20009;-76
2021/12/20 02:05:46;;;;;;;21.92;5.28;;;;;;;3.83;81.13;99702.16;6098085;23;20013;-76
2021/12/20 02:08:24;;;;;;;22.80;5.40;;;;;;;3.79;81.24;99714.91;6079010;23;20005;-76
2021/12/20 02:10:54;;;;;;;19.17;5.05;;;;;;;3.80;81.40;99721.81;6097560;23;20057;-77
2021/12/20 02:13:20;;;;;;;17.70;5.30;;;;;;;3.76;81.66;99715.25;6050810;23;20014;-77
2021/12/20 02:15:45;;;;;;;23.52;5.70;;;;;;;3.66;80.86;99709.47;6051158;23;20352;-77
2021/12/20 02:18:11;;;;;;;15.13;5.05;;;;;;;3.71;80.95;99717.66;6051674;23;20012;-77
2021/12/20 02:20:37;;;;;;;13.23;5.60;;;;;;;3.70;80.92;99718.66;6098909;23;20448;-77
2021/12/20 02:23:05;;;;;;;14.32;4.75;;;;;;;3.66;81.71;99717.38;6075090;23;20467;-77
2021/12/20 02:25:31;;;;;;;14.05;5.30;;;;;;;3.63;81.22;99715.91;6075717;23;20017;-77
2021/12/20 02:28:03;;;;;;;19.55;5.03;;;;;;;3.66;81.44;99720.03;6099498;23;20056;-76
2021/12/20 02:38:27;;;;;;;25.45;5.15;;;;;;;3.55;81.01;99723.13;6084640;23;20495;-76
2021/12/20 02:41:10;;;;;;;20.90;5.07;;;;;;;3.56;81.37;99725.56;6052893;23;20009;-76
2021/12/20 02:43:41;;;;;;;15.57;4.75;;;;;;;3.51;81.02;99721.84;6100419;23;20137;-76
2021/12/20 02:48:58;;;;;;;19.73;5.03;;;;;;;3.48;81.21;99723.03;6136427;23;20002;-76
2021/12/20 02:51:26;;;;;;;19.48;6.68;;;;;;;3.46;80.93;99714.47;6100419;23;20013;-76
2021/12/20 02:53:52;;;;;;;16.90;5.10;;;;;;;3.45;81.01;99712.03;6100900;23;20009;-76
2021/12/20 02:56:18;;;;;;;15.45;5.15;;;;;;;3.44;80.68;99713.00;6125086;23;20014;-76
2021/12/20 02:58:44;;;;;;;16.70;3.78;;;;;;;3.44;80.60;99710.38;6100011;23;20115;-77
2021/12/20 03:01:10;;;;;;;15.93;4.50;;;;;;;3.15;81.10;99655.78;6097319;23;20010;-77
2021/12/20 03:03:35;;;;;;;16.30;5.05;;;;;;;3.44;80.75;99710.38;6097456;23;20020;-77
2021/12/20 03:06:24;;;;;;;13.50;4.72;;;;;;;3.40;80.49;99709.09;6096976;23;20058;-77
2021/12/20 03:08:52;;;;;;;16.13;4.97;;;;;;;3.36;80.55;99707.81;6121964;23;20017;-78
2021/12/20 03:11:20;;;;;;;16.83;4.80;;;;;;;3.38;80.56;99711.09;6098458;23;20014;-77
2021/12/20 03:13:50;;;;;;;16.02;4.40;;;;;;;3.36;80.40;99706.00;6097814;23;20693;-78
2021/12/20 03:16:16;;;;;;;13.27;4.25;;;;;;;3.39;80.05;99710.09;6122319;23;20005;-77
2021/12/20 03:18:42;;;;;;;11.98;3.75;;;;;;;3.31;80.21;99711.00;6096605;23;20006;-78
2021/12/20 03:21:07;;;;;;;14.10;4.18;;;;;;;3.32;80.60;99712.63;6097101;23;20016;-78
2021/12/20 03:23:33;;;;;;;17.77;4.53;;;;;;;3.27;80.45;99715.00;6075747;23;20017;-76
2021/12/20 03:25:58;;;;;;;11.90;4.80;;;;;;;3.28;80.17;99710.53;6149007;23;20004;-76
2021/12/20 03:28:23;;;;;;;19.33;4.82;;;;;;;3.25;79.65;99709.09;6099780;23;20014;-75
2021/12/20 03:30:49;;;;;;;15.95;4.25;;;;;;;3.22;79.75;99708.63;6096819;23;20033;-77
2021/12/20 03:33:14;;;;;;;19.45;5.32;;;;;;;3.18;80.02;99691.53;6073175;23;20013;-77
2021/12/20 03:35:40;;;;;;;14.10;3.72;;;;;;;3.19;79.90;99716.91;6073304;23;20390;-77
2021/12/20 03:38:05;;;;;;;14.45;4.28;;;;;;;3.19;79.69;99709.78;6050385;23;20025;-77
2021/12/20 03:40:32;;;;;;;16.80;5.05;;;;;;;3.15;79.51;99702.41;6097930;23;20022;-77
2021/12/20 03:42:58;;;;;;;14.40;4.10;;;;;;;3.12;79.59;99708.91;6096854;23;20013;-77
2021/12/20 03:45:23;;;;;;;16.92;4.35;;;;;;;3.12;79.63;99711.53;6096550;23;20008;-77
2021/12/20 03:47:49;;;;;;;16.67;4.22;;;;;;;3.07;79.20;99713.06;6072745;23;20006;-77
2021/12/20 03:50:15;;;;;;;15.75;3.90;;;;;;;3.08;79.46;99712.06;6047933;23;20512;-77
2021/12/20 03:52:41;;;;;;;12.40;4.22;;;;;;;3.06;79.48;99716.72;6098557;23;20033;-76
2021/12/20 03:55:10;;;;;;;13.50;4.15;;;;;;;3.03;79.21;99723.16;6099645;23;20010;-75
2021/12/20 03:57:35;;;;;;;10.25;4.25;;;;;;;2.99;79.29;99727.94;6099284;23;20459;-75
2021/12/20 04:00:07;;;;;;;18.05;4.63;;;;;;;2.98;79.08;99713.13;6124074;23;20014;-75
2021/12/20 04:02:39;;;;;;;10.00;3.80;;;;;;;3.00;78.47;99715.59;6099647;23;20006;-75
2021/12/20 04:05:05;;;;;;;16.33;4.30;;;;;;;2.93;78.92;99712.00;6076787;23;20140;-75
2021/12/20 04:07:31;;;;;;;8.80;4.00;;;;;;;2.93;78.88;99722.56;6099782;23;20006;-75
2021/12/20 04:09:56;;;;;;;13.48;4.22;;;;;;;2.89;78.74;99714.19;6125506;23;20002;-76
2021/12/20 04:12:22;;;;;;;15.45;4.15;;;;;;;2.87;78.72;99718.00;6098886;23;20445;-75
2021/12/20 04:14:47;;;;;;;14.73;4.75;;;;;;;2.86;78.59;99725.09;6098870;23;20009;-76
2021/12/20 04:17:13;;;;;;;14.75;4.00;;;;;;;2.86;78.41;99719.03;6099276;23;20465;-75
2021/12/20 04:19:38;;;;;;;13.35;4.55;;;;;;;2.83;78.34;99724.63;6075322;23;20044;-75
2021/12/20 04:22:04;;;;;;;25.42;5.40;;;;;;;2.78;78.47;99714.63;6051296;23;20100;-75
2021/12/20 04:24:29;;;;;;;11.20;3.75;;;;;;;2.78;78.80;99724.34;6074658;23;20021;-76
2021/12/20 04:26:55;;;;;;;10.00;3.88;;;;;;;2.69;78.12;99709.59;6051474;23;20010;-75
2021/12/20 04:29:20;;;;;;;15.25;5.13;;;;;;;2.67;78.04;99712.41;6075388;23;20016;-76
2021/12/20 04:31:46;;;;;;;13.68;4.20;;;;;;;2.79;78.51;99729.47;6075434;23;20109;-76
2021/12/20 04:34:11;;;;;;;10.00;3.92;;;;;;;2.75;78.56;99730.78;6099061;23;20342;-75
2021/12/20 04:36:37;;;;;;;22.50;4.07;;;;;;;2.73;78.42;99719.59;6051278;23;20389;-76
2021/12/20 04:39:07;;;;;;;15.85;4.85;;;;;;;2.69;78.58;99723.59;6098171;23;20026;-76
2021/12/20 04:41:33;;;;;;;9.20;4.10;;;;;;;2.66;78.54;99725.78;6076650;23;20361;-76
2021/12/20 04:43:58;;;;;;;10.00;3.80;;;;;;;2.50;78.32;99703.00;6099561;23;20014;-77
2021/12/20 04:46:23;;;;;;;15.10;3.53;;;;;;;2.61;78.08;99736.00;6075064;23;20021;-77
2021/12/20 04:48:49;;;;;;;17.35;4.28;;;;;;;2.59;78.72;99730.91;6051108;23;20002;-77
2021/12/20 04:51:14;;;;;;;9.07;4.32;;;;;;;2.57;78.73;99740.00;6074804;23;20013;-77
2021/12/20 04:53:40;;;;;;;14.00;4.25;;;;;;;2.60;78.48;99735.19;6075501;23;20012;-77
2021/12/20 04:56:05;;;;;;;12.88;3.38;;;;;;;2.57;78.50;99738.19;6051158;23;20040;-76
2021/12/20 04:58:30;;;;;;;11.55;4.22;;;;;;;2.43;77.99;99717.84;6074170;23;20002;-76
2021/12/20 05:00:56;;;;;;;17.98;3.30;;;;;;;2.53;78.24;99733.44;6049868;23;20344;-76
2021/12/20 05:03:21;;;;;;;13.80;3.88;;;;;;;2.55;77.69;99742.00;6073717;23;20041;-76
2021/12/20 05:05:47;;;;;;;13.55;3.65;;;;;;;2.52;78.43;99743.16;6096408;23;20010;-76
2021/12/20 05:08:13;;;;;;;7.22;3.55;;;;;;;2.50;78.39;99734.59;6097872;23;20661;-76
2021/12/20 05:10:40;;;;;;;13.70;3.38;;;;;;;2.53;78.00;99743.97;6097974;23;20398;-76
2021/12/20 05:13:08;;;;;;;14.68;3.80;;;;;;;2.49;78.19;99746.13;6096432;23;20150;-76
2021/12/20 05:15:36;;;;;;;11.60;3.35;;;;;;;2.43;78.06;99752.09;6096893;23;20468;-76
2021/12/20 05:18:01;;;;;;;11.80;3.40;;;;;;;2.43;77.73;99756.53;6048166;23;20013;-76
2021/12/20 05:20:27;;;;;;;8.75;3.63;;;;;;;2.42;77.78;99755.75;6146666;23;20351;-76
2021/12/20 05:22:54;;;;;;;10.35;3.20;;;;;;;2.41;78.15;99745.34;6098963;23;20029;-75
2021/12/20 05:25:20;;;;;;;7.22;3.00;;;;;;;2.37;77.67;99750.16;6098947;23;20433;-75
2021/12/20 05:27:46;;;;;;;16.00;5.82;;;;;;;2.40;77.95;99749.00;6051108;23;20018;-76
2021/12/20 05:30:12;;;;;;;13.32;3.17;;;;;;;2.36;77.63;99747.72;6098483;23;20008;-76
2021/12/20 05:32:38;;;;;;;12.40;3.25;;;;;;;2.38;77.81;99754.44;6051096;23;20065;-76
2021/12/20 05:35:06;;;;;;;7.93;2.67;;;;;;;2.32;77.85;99751.66;6097230;23;20017;-75
2021/12/20 05:37:31;;;;;;;8.23;3.55;;;;;;;2.35;77.68;99756.59;6073309;23;20033;-75
2021/12/20 05:39:57;;;;;;;17.73;4.47;;;;;;;2.29;77.62;99758.13;6097206;23;20002;-75
2021/12/20 05:42:22;;;;;;;10.77;2.80;;;;;;;2.28;77.29;99759.09;6073671;23;20024;-75
2021/12/20 05:44:50;;;;;;;8.88;3.75;;;;;;;2.27;77.54;99753.00;6049102;23;20084;-75
2021/12/20 05:47:16;;;;;;;8.60;3.42;;;;;;;2.29;77.15;99760.75;6073295;23;20313;-75
2021/12/20 05:49:42;;;;;;;8.95;3.53;;;;;;;2.22;77.23;99755.38;6072530;23;20006;-76
2021/12/20 05:52:07;;;;;;;10.70;3.30;;;;;;;2.25;77.45;99755.00;6073049;23;20006;-75
2021/12/20 05:54:33;;;;;;;9.35;3.03;;;;;;;2.19;77.21;99762.75;6097447;23;20013;-76
2021/12/20 05:56:58;;;;;;;8.18;3.45;;;;;;;2.22;77.19;99765.91;6048810;23;20056;-76
2021/12/20 05:59:24;;;;;;;9.38;3.55;;;;;;;2.18;77.28;99776.94;6073165;23;20017;-75
2021/12/20 06:01:49;;;;;;;6.90;3.10;;;;;;;2.17;77.03;99776.13;6073227;23;20010;-75
2021/12/20 06:04:15;;;;;;;13.95;3.35;;;;;;;2.16;77.04;99779.72;6047866;23;20033;-77
2021/12/20 06:06:40;;;;;;;9.32;3.33;;;;;;;2.11;77.30;99784.72;6048272;23;20021;-77
2021/12/20 06:09:06;;;;;;;10.70;3.20;;;;;;;2.13;76.88;99774.81;6094890;23;20006;-77
2021/12/20 06:11:31;;;;;;;9.88;3.33;;;;;;;2.11;77.08;99781.25;6049827;23;20352;-77
2021/12/20 06:13:58;;;;;;;9.85;3.00;;;;;;;2.06;76.99;99784.38;6074392;23;20033;-78
2021/12/20 06:16:24;;;;;;;11.52;3.70;;;;;;;2.09;76.43;99781.44;6050873;23;20018;-77
2021/12/20 06:18:51;;;;;;;9.25;3.22;;;;;;;2.04;76.83;99793.44;6097284;23;20025;-78
2021/12/20 06:21:18;;;;;;;18.60;3.63;;;;;;;2.01;76.84;99796.44;6121374;23;20021;-77
2021/12/20 06:23:44;;;;;;;6.38;2.88;;;;;;;2.00;76.47;99795.63;6097776;23;20061;-76
2021/12/20 06:26:09;;;;;;;11.90;3.10;;;;;;;2.01;76.48;99794.59;6098236;23;20021;-76
2021/12/20 06:28:36;;;;;;;9.90;2.85;;;;;;;1.98;76.40;99794.97;6050412;23;20010;-76
2021/12/20 06:31:02;;;;;;;9.73;3.53;;;;;;;1.96;76.66;99798.75;6149944;23;20089;-76
2021/12/20 06:33:27;;;;;;;18.88;3.92;;;;;;;1.92;76.51;99794.81;6073139;23;20038;-76
2021/12/20 06:35:53;;;;;;;12.32;2.80;;;;;;;1.90;76.32;99788.91;6098817;23;20002;-78
2021/12/20 06:38:21;;;;;;;13.57;2.78;;;;;;;1.88;76.50;99794.31;6150759;23;20507;-79
2021/12/20 06:40:47;;;;;;;6.28;2.97;;;;;;;1.91;76.21;99801.91;6101073;23;20021;-79
2021/12/20 06:43:13;;;;;;;10.55;2.75;;;;;;;1.86;76.53;99806.84;6101460;23;20068;-82
2021/12/20 06:45:39;;;;;;;11.40;2.83;;;;;;;1.86;76.26;99800.75;6054569;23;20534;-82
2021/12/20 06:48:05;;;;;;;9.02;2.80;;;;;;;1.81;76.00;99806.53;6102269;23;20433;-81
2021/12/20 06:50:31;;;;;;;9.57;2.92;;;;;;;1.85;75.95;99809.66;6102344;23;20085;-82
2021/12/20 06:52:57;;;;;;;9.23;2.65;;;;;;;1.85;76.01;99813.09;6102334;23;20538;-81
2021/12/20 06:55:23;;;;;;;8.90;2.78;;;;;;;1.78;76.19;99800.78;6102702;23;20010;-82
2021/12/20 06:57:48;;;;;;;13.25;2.83;;;;;;;1.67;76.38;99786.16;6102764;23;20017;-81
2021/12/20 07:00:14;;;;;;;10.10;3.13;;;;;;;1.76;76.04;99798.31;6079047;23;20018;-81
2021/12/20 07:02:40;;;;;;;9.32;2.40;;;;;;;1.70;75.77;99808.69;6103306;23;20017;-81
2021/12/20 07:05:06;;;;;;;4.97;2.28;;;;;;;1.67;76.13;99812.47;6104356;23;20010;-80
2021/12/20 07:07:32;;;;;;;10.65;3.20;;;;;;;1.68;75.57;99808.88;6102096;23;20078;-81
2021/12/20 07:09:57;;;;;;;10.02;2.72;;;;;;;1.70;75.81;99811.34;6102872;23;20314;-82
2021/12/20 07:12:23;;;;;;;6.32;2.78;;;;;;;1.67;75.61;99811.66;6053979;23;20048;-80
2021/12/20 07:14:50;;;;;;;9.55;2.65;;;;;;;1.65;75.79;99814.47;6101278;23;20006;-81
2021/12/20 07:17:17;;;;;;;8.23;2.90;;;;;;;1.64;76.06;99819.91;6101593;23;20013;-81
2021/12/20 07:19:43;;;;;;;7.65;2.10;;;;;;;1.60;75.74;99823.84;6099839;23;20000;-81
2021/12/20 07:22:08;;;;;;;9.82;3.03;;;;;;;1.59;75.66;99823.03;6073033;23;20108;-80
2021/12/20 07:24:34;;;;;;;9.77;4.15;;;;;;;1.59;76.00;99824.84;6069416;23;20017;-79
2021/12/20 07:26:59;;;;;;;6.15;1.95;;;;;;;1.49;75.45;99811.84;6096029;23;20307;-80
2021/12/20 07:29:25;;;;;;;8.65;2.97;;;;;;;1.57;75.90;99835.53;6049140;23;20025;-80
2021/12/20 07:31:50;;;;;;;6.28;2.90;;;;;;;1.51;76.06;99837.00;6073860;23;20013;-80
2021/12/20 07:34:16;;;;;;;9.77;4.28;;;;;;;1.50;75.88;99827.50;6082874;23;20039;-78
2021/12/20 07:36:44;;;;;;;10.90;3.97;;;;;;;1.47;75.95;99822.56;6110718;23;20040;-79
2021/12/20 07:39:10;;;;;;;7.55;2.78;;;;;;;1.48;75.57;99828.63;6110676;23;20021;-78
2021/12/20 07:41:35;;;;;;;5.55;3.00;;;;;;;1.46;75.64;99828.78;6086782;23;20021;-79
2021/12/20 07:44:01;;;;;;;8.60;2.40;;;;;;;1.46;76.05;99823.53;6112776;23;20009;-79
2021/12/20 07:46:27;;;;;;;7.88;2.90;;;;;;;1.43;76.11;99825.69;6065944;23;20014;-78
2021/12/20 07:48:52;;;;;;;17.88;3.10;;;;;;;1.46;75.32;99826.16;6087772;23;20006;-79
2021/12/20 07:51:17;;;;;;;12.43;4.18;;;;;;;1.49;74.55;99838.16;6058383;23;20016;-79
2021/12/20 07:53:43;;;;;;;11.98;2.92;;;;;;;1.41;74.24;99839.00;6058713;23;20020;-79
2021/12/20 07:56:09;;;;;;;7.43;2.80;;;;;;;1.33;73.20;99848.72;6104690;23;20017;-78
2021/12/20 07:58:35;;;;;;;12.50;3.05;;;;;;;1.30;72.85;99838.50;6104557;23;20006;-78
2021/12/20 08:01:01;;;;;;;7.47;3.17;;;;;;;1.24;73.56;99836.53;6106607;23;20088;-78
2021/12/20 08:03:28;;;;;;;10.45;3.03;;;;;;;1.12;73.33;99836.03;6124949;23;20396;-77
2021/12/20 08:05:54;;;;;;;6.75;2.60;;;;;;;1.09;73.88;99833.72;6100646;23;20017;-78
2021/12/20 08:08:19;;;;;;;9.52;3.03;;;;;;;1.02;74.27;99847.69;6099111;23;20006;-77
2021/12/20 08:10:45;;;;;;;11.70;3.50;;;;;;;0.92;73.86;99855.72;6099548;23;20356;-77
2021/12/20 08:13:12;;;;;;;11.18;3.10;;;;;;;0.91;74.59;99854.09;6099388;23;20037;-78
2021/12/20 08:15:38;;;;;;;13.15;2.97;;;;;;;0.78;74.13;99848.50;6099568;23;20014;-81
2021/12/20 08:18:04;;;;;;;12.85;3.00;;;;;;;0.79;74.56;99855.38;6071507;23;20032;-77
2021/12/20 08:20:30;;;;;;;10.05;3.78;;;;;;;0.41;75.46;99811.31;6098058;23;20350;-77
2021/12/20 08:22:56;;;;;;;12.73;3.47;;;;;;;0.76;75.21;99866.22;6104346;23;20005;-78
2021/12/20 08:25:21;;;;;;;13.45;4.25;;;;;;;0.70;76.14;99869.47;6079993;23;20375;-78
2021/12/20 08:27:48;;;;;;;15.57;4.18;;;;;;;0.63;76.43;99857.97;6101490;23;20021;-77
2021/12/20 08:30:13;;;;;;;16.13;4.57;;;;;;;0.63;76.08;99865.88;6148085;23;20017;-90
2021/12/20 08:32:39;;;;;;;13.00;4.00;;;;;;;0.71;76.42;99886.91;6177635;23;20084;-90
2021/12/20 08:35:10;;;;;;;10.45;5.05;;;;;;;0.32;76.24;99836.72;6153102;23;20016;-90
2021/12/20 08:37:37;;;;;;;13.82;4.53;;;;;;;0.70;76.93;99879.97;6152842;23;20452;-90
2021/12/20 08:40:05;;;;;;;13.90;5.72;;;;;;;0.29;76.78;99812.56;6152969;23;20044;-89
2021/12/20 08:42:31;;;;;;;16.75;7.05;;;;;;;0.27;76.82;99814.53;6151913;23;20010;-90
2021/12/20 08:44:56;;;;;;;27.23;7.95;;;;;;;0.00;76.85;99756.03;6152325;23;20020;-90
2021/12/20 08:47:23;;;;;;;19.27;8.00;;;;;;;0.42;77.31;99834.78;6153039;23;20010;-90
2021/12/20 08:49:48;;;;;;;17.25;7.50;;;;;;;0.44;76.98;99822.31;6152905;23;20025;-89
2021/12/20 08:52:15;;;;;;;23.67;7.55;;;;;;;0.29;77.30;99799.44;6152583;23;19997;-90
2021/12/20 08:54:41;;;;;;;14.60;7.07;;;;;;;0.49;77.32;99843.66;6128173;23;20100;-90
2021/12/20 08:57:07;;;;;;;14.80;6.68;;;;;;;0.28;77.76;99797.81;6127303;23;20013;-90
2021/12/20 08:59:34;;;;;;;15.95;6.97;;;;;;;0.17;77.29;99775.31;6128404;23;20468;-89
2021/12/20 09:02:00;;;;;;;17.00;6.40;;;;;;;0.31;77.53;99805.34;6153080;23;20014;-90
2021/12/20 09:04:26;;;;;;;13.18;5.55;;;;;;;0.12;77.33;99771.50;6153566;23;20058;-90
2021/12/20 09:06:51;;;;;;;11.57;4.85;;;;;;;0.72;77.20;99864.91;6153817;23;20006;-91
2021/12/20 09:09:19;;;;;;;15.45;6.53;;;;;;;-0.18;77.60;99721.25;6156159;23;20024;-92
2021/12/20 09:11:45;;;;;;;11.32;5.05;;;;;;;-0.08;77.75;99727.16;6154992;23;20480;-92
2021/12/20 09:14:14;;;;;;;12.52;5.72;;;;;;;0.76;77.52;99868.84;6153653;23;20008;-91
2021/12/20 09:16:43;;;;;;;7.53;4.82;;;;;;;0.42;77.40;99821.63;6153598;23;19997;-91
2021/12/20 09:19:08;;;;;;;18.33;5.60;;;;;;;-0.09;77.16;99724.72;6153062;23;19998;-91
2021/12/20 09:21:41;;;;;;;9.68;4.93;;;;;;;0.64;77.69;99852.56;6151824;23;20016;-91
2021/12/20 09:24:09;;;;;;;13.43;5.53;;;;;;;0.35;77.67;99809.31;6151285;23;20016;-91
2021/12/20 09:26:35;;;;;;;11.98;4.82;;;;;;;0.10;78.18;99755.09;6153599;23;20009;-91
2021/12/20 09:29:00;;;;;;;20.55;6.85;;;;;;;1.10;77.63;99924.75;6155621;23;20008;-91
2021/12/20 09:31:27;;;;;;;12.02;4.70;;;;;;;0.26;78.00;99766.47;6157224;23;20099;-91
2021/12/20 09:34:04;;;;;;;10.60;4.93;;;;;;;0.93;78.04;99881.03;6132137;23;20067;-90
2021/12/20 09:36:30;;;;;;;14.05;6.35;;;;;;;1.17;78.15;99928.41;6180948;23;20059;-89
2021/12/20 09:38:57;;;;;;;10.73;5.38;;;;;;;0.98;77.92;99891.91;6156465;23;20001;-90
2021/12/20 09:44:03;;;;;;;10.00;4.95;;;;;;;1.16;77.90;99912.75;6186949;23;20009;-90
2021/12/20 09:46:29;;;;;;;10.95;5.75;;;;;;;0.20;77.96;99750.56;6155611;23;20429;-90
2021/12/20 09:48:54;;;;;;;13.95;6.32;;;;;;;0.37;78.23;99770.59;6156242;23;20437;-90
2021/12/20 09:51:22;;;;;;;13.63;5.55;;;;;;;0.93;78.36;99857.38;6156705;23;20008;-90
2021/12/20 09:53:47;;;;;;;9.88;4.85;;;;;;;0.26;78.12;99765.66;6133461;23;20454;-89
2021/12/20 09:56:13;;;;;;;18.88;6.07;;;;;;;0.65;78.48;99816.63;6184208;23;20005;-89
2021/12/20 09:58:40;;;;;;;10.00;4.65;;;;;;;0.27;78.77;99748.91;6157290;23;20480;-90
2021/12/20 10:01:09;;;;;;;14.40;5.40;;;;;;;0.99;79.06;99861.97;6157600;23;20031;-90
2021/12/20 10:03:35;;;;;;;14.77;4.57;;;;;;;0.30;78.25;99756.47;6183199;23;20005;-90
2021/12/20 10:06:01;;;;;;;16.33;6.30;;;;;;;1.16;78.41;99883.84;6158088;23;20013;-91
2021/12/20 10:08:34;;;;;;;14.60;4.95;;;;;;;0.97;78.61;99850.81;6157979;23;20009;-91
2021/12/20 10:11:17;;;;;;;13.40;4.85;;;;;;;0.88;78.69;99841.28;6156873;23;20012;-89
2021/12/20 10:13:43;;;;;;;13.52;5.25;;;;;;;0.56;78.96;99779.00;6158105;23;20008;-90
2021/12/20 10:16:20;;;;;;;14.63;5.22;;;;;;;0.86;78.84;99829.28;6133647;23;20013;-90
2021/12/20 10:18:47;;;;;;;11.45;4.88;;;;;;;1.51;79.16;99931.69;6130792;23;20005;-91
2021/12/20 10:21:13;;;;;;;13.20;5.40;;;;;;;0.85;78.89;99817.13;6133091;23;20437;-90
2021/12/20 10:23:44;;;;;;;11.30;6.07;;;;;;;0.64;79.32;99780.81;6109130;23;20063;-91
2021/12/20 10:26:22;;;;;;;13.25;5.40;;;;;;;0.62;79.14;99780.16;6182224;23;20043;-91
2021/12/20 10:28:52;;;;;;;13.32;5.25;;;;;;;0.58;78.76;99766.53;6182237;23;20001;-89
2021/12/20 10:31:26;;;;;;;12.75;5.03;;;;;;;0.96;79.38;99838.66;6157222;23;20029;-93
2021/12/20 10:33:57;;;;;;;17.60;6.03;;;;;;;0.73;78.86;99785.09;6158071;23;20001;-91
2021/12/20 10:37:02;;;;;;;;;;;;;;;;;;;;;
2021/12/20 10:43:49;;;;;;;12.55;4.70;;;;;;;0.47;78.70;99747.63;6185698;23;20071;-91
2021/12/20 10:46:32;;;;;;;12.30;3.80;;;;;;;1.59;79.08;99925.63;6134057;23;20444;-92
2021/12/20 10:49:00;;;;;;;6.22;3.25;;;;;;;1.64;78.71;99912.00;6160409;23;20035;-92
2021/12/20 10:51:28;;;;;;;8.93;3.47;;;;;;;0.94;79.06;99801.19;6159847;23;20013;-91
2021/12/20 10:54:22;;;;;;;9.10;3.92;;;;;;;1.67;78.77;99930.06;6135662;23;20059;-92
2021/12/20 10:56:55;;;;;;;7.32;2.58;;;;;;;0.56;78.70;99736.16;6186483;23;20012;-91
2021/12/20 10:59:26;;;;;;;5.55;2.78;;;;;;;1.73;77.95;99924.13;6159259;23;19993;-93
2021/12/20 11:04:25;;;;;;;10.00;3.30;;;;;;;0.78;78.70;99751.28;6184548;23;20009;-90
2021/12/20 11:09:43;;;;;;;5.57;2.28;;;;;;;1.80;78.69;99918.06;6186277;23;20005;-92
2021/12/20 11:12:23;;;;;;;9.32;2.42;;;;;;;1.67;78.56;99901.94;6158314;23;20089;-92
2021/12/20 11:14:51;;;;;;;5.60;2.95;;;;;;;1.42;78.98;99835.38;6184959;23;20004;-92
2021/12/20 11:17:20;;;;;;;4.70;1.83;;;;;;;0.76;78.86;99738.28;6158081;23;20035;-89
2021/12/20 11:19:52;;;;;;;5.57;2.40;;;;;;;0.85;78.60;99744.41;6157968;23;20001;-92
2021/12/20 11:22:20;;;;;;;10.77;2.22;;;;;;;1.22;79.14;99802.50;6158760;23;20063;-91
2021/12/20 11:25:06;;;;;;;2.35;1.70;;;;;;;0.93;78.63;99747.00;6158791;23;20004;-91
2021/12/20 11:27:55;;;;;;;6.53;1.90;;;;;;;1.87;78.35;99907.69;6159306;23;20123;-91
2021/12/20 11:30:24;;;;;;;3.47;2.13;;;;;;;1.15;78.94;99791.03;6157104;23;20242;-91
2021/12/20 11:32:54;;;;;;;6.32;2.15;;;;;;;0.71;79.14;99719.59;6158755;23;20005;-91
2021/12/20 11:39:32;;;;;;;5.93;1.40;;;;;;;1.93;78.28;99896.47;6183717;23;20317;-92
2021/12/20 11:42:05;;;;;;;4.80;2.10;;;;;;;0.93;78.71;99731.25;6159276;23;20063;-91
2021/12/20 11:45:24;;;;;;;5.20;2.10;;;;;;;1.97;78.52;99893.34;6185171;23;20032;-90
2021/12/20 11:51:11;;;;;;;6.78;2.80;;;;;;;2.01;78.49;99883.31;6180804;23;20061;-77
2021/12/20 11:53:40;;;;;;;2.85;1.77;;;;;;;2.11;78.93;99895.31;6129935;23;20021;-77
2021/12/20 11:56:06;;;;;;;6.88;2.60;;;;;;;2.17;78.77;99886.72;6154230;23;20016;-77
2021/12/20 11:58:38;;;;;;;3.97;2.25;;;;;;;2.23;78.60;99887.84;6179270;23;19998;-77
2021/12/20 12:01:16;;;;;;;5.25;2.10;;;;;;;2.25;78.78;99891.94;6154457;23;20427;-77
2021/12/20 12:04:04;;;;;;;5.57;2.38;;;;;;;2.26;78.75;99890.16;6155162;23;20408;-77
2021/12/20 12:06:31;;;;;;;5.82;3.20;;;;;;;2.32;78.85;99881.56;6180001;23;20064;-77
2021/12/20 12:08:59;;;;;;;6.75;2.00;;;;;;;2.38;78.57;99880.88;6156000;23;20164;-78
2021/12/20 12:11:25;;;;;;;2.90;1.50;;;;;;;2.44;78.79;99877.56;6160835;23;20336;-78
2021/12/20 12:14:04;;;;;;;6.20;2.00;;;;;;;2.44;78.26;99882.00;6160001;23;20011;-78